createdAt,value
2019-03-09T00:08:20.665Z,23.3
2019-03-09T00:18:19.875Z,23.3
2019-03-09T00:28:19.086Z,23.3
2019-03-09T00:38:18.332Z,23.3
2019-03-09T00:48:17.616Z,23.3
2019-03-09T00:58:16.922Z,23.3
2019-03-09T01:08:16.191Z,23.3
2019-03-09T01:18:15.477Z,23.2
2019-03-09T01:28:14.767Z,23.2
2019-03-09T01:38:13.980Z,23.3
2019-03-09T01:48:13.188Z,23.2
2019-03-09T01:58:12.395Z,23.2
2019-03-09T02:08:11.606Z,23.2
2019-03-09T02:18:10.818Z,23.1
2019-03-09T02:28:10.025Z,23.1
2019-03-09T02:38:09.236Z,23.1
2019-03-09T02:48:08.444Z,23.1
2019-03-09T02:58:07.653Z,23.1
2019-03-09T03:08:06.865Z,23.1
2019-03-09T03:18:06.095Z,23.1
2019-03-09T03:28:05.291Z,23
2019-03-09T03:38:04.491Z,23
2019-03-09T03:48:03.705Z,23
2019-03-09T03:58:02.912Z,23
2019-03-09T04:08:02.120Z,23
2019-03-09T04:18:01.342Z,22.9
2019-03-09T04:28:00.540Z,22.9
2019-03-09T04:37:59.756Z,22.9
2019-03-09T04:47:58.955Z,22.9
2019-03-09T04:57:58.161Z,22.9
2019-03-09T05:07:57.371Z,22.9
2019-03-09T05:17:56.586Z,22.9
2019-03-09T05:27:55.795Z,22.9
2019-03-09T05:37:54.999Z,22.9
2019-03-09T05:47:54.202Z,22.9
2019-03-09T05:57:53.412Z,23
2019-03-09T06:07:52.822Z,23.1
2019-03-09T06:17:51.829Z,23.1
2019-03-09T06:27:51.039Z,23.1
2019-03-09T06:37:50.254Z,23.1
2019-03-09T06:47:49.457Z,23.1
2019-03-09T06:57:48.668Z,23.1
2019-03-09T07:07:47.886Z,23.1
2019-03-09T07:17:47.087Z,23.2
2019-03-09T07:27:46.298Z,23.3
2019-03-09T07:37:45.512Z,23.3
2019-03-09T07:47:44.725Z,23.3
2019-03-09T07:57:43.931Z,23.4
2019-03-09T08:07:43.142Z,23.4
2019-03-09T08:17:42.353Z,23.4
2019-03-09T08:27:41.565Z,23.4
2019-03-09T08:37:40.778Z,23.6
2019-03-09T08:47:40.047Z,23.4
2019-03-09T08:57:39.205Z,23.7
2019-03-09T09:07:38.425Z,23.6
2019-03-09T09:17:37.645Z,23.7
2019-03-09T09:27:36.861Z,23.7
2019-03-09T09:37:36.086Z,23.8
2019-03-09T09:47:35.309Z,23.8
2019-03-09T09:57:34.541Z,23.8
2019-03-09T10:07:33.755Z,23.8
2019-03-09T10:17:32.980Z,23.8
2019-03-09T10:27:32.243Z,23.8
2019-03-09T10:37:31.412Z,23.8
2019-03-09T10:47:30.631Z,23.7
2019-03-09T10:57:29.843Z,23.8
2019-03-09T11:07:29.058Z,24.1
2019-03-09T11:17:28.272Z,23.6
2019-03-09T11:27:27.492Z,23.6
2019-03-09T11:34:30.113Z,23.8
2019-03-09T11:44:29.329Z,23.9
2019-03-09T11:54:28.547Z,23.8
2019-03-09T12:04:27.762Z,23.7
2019-03-09T12:14:26.986Z,23.8
2019-03-09T12:24:26.192Z,23.7
2019-03-09T12:34:25.460Z,23.6
2019-03-09T12:44:24.737Z,23.9
2019-03-09T12:54:24.021Z,23.5
2019-03-09T13:04:23.314Z,23.6
2019-03-09T13:14:22.606Z,23.6
2019-03-09T13:24:21.894Z,23.4
2019-03-09T13:34:21.108Z,23.5
2019-03-09T13:44:20.323Z,23.6
2019-03-09T13:54:19.536Z,23.7
2019-03-09T14:04:18.750Z,23.6
2019-03-09T14:14:17.968Z,23.5
2019-03-09T14:24:17.177Z,23.6
2019-03-09T14:34:16.395Z,23.6
2019-03-09T14:44:15.612Z,23.6
2019-03-09T14:54:14.818Z,23.6
2019-03-09T15:04:14.038Z,23.6
2019-03-09T15:14:13.246Z,23.6
2019-03-09T15:24:12.465Z,23.6
2019-03-09T15:34:11.672Z,23.6
2019-03-09T15:44:10.888Z,23.6
2019-03-09T15:54:10.108Z,23.6
2019-03-09T16:04:09.318Z,23.6
2019-03-09T16:14:08.534Z,23.6
2019-03-09T16:24:07.755Z,23.6
2019-03-09T16:34:06.965Z,23.6
2019-03-09T16:44:06.180Z,23.6
2019-03-09T16:54:05.399Z,23.6
2019-03-09T17:04:04.607Z,23.6
2019-03-09T17:14:03.822Z,23.6
2019-03-09T17:24:03.036Z,23.6
2019-03-09T17:39:18.989Z,23.6
2019-03-09T17:49:18.259Z,23.6
2019-03-09T17:59:17.420Z,23.5
2019-03-09T18:09:16.683Z,23.6
2019-03-09T18:19:15.848Z,23.6
2019-03-09T18:29:15.066Z,23.5
2019-03-09T18:39:14.316Z,23.5
2019-03-09T18:49:13.599Z,23.5
2019-03-09T18:59:12.892Z,23.6
2019-03-09T19:09:12.183Z,23.6
2019-03-09T19:19:11.475Z,23.6
2019-03-09T19:29:10.774Z,23.6
2019-03-09T19:39:09.980Z,23.6
2019-03-09T19:49:09.196Z,23.6
2019-03-09T19:59:08.424Z,23.7
2019-03-09T20:09:07.628Z,23.7
2019-03-09T20:19:06.841Z,23.6
2019-03-09T20:29:06.066Z,23.7
2019-03-09T20:39:05.279Z,23.6
2019-03-09T20:49:04.493Z,23.6
2019-03-09T20:59:03.711Z,23.7
2019-03-09T21:09:02.938Z,23.7
2019-03-09T21:19:02.140Z,23.6
2019-03-09T21:29:01.355Z,23.6
2019-03-09T21:39:00.572Z,23.6
2019-03-09T21:48:59.786Z,23.6
2019-03-09T21:58:59.000Z,23.6
2019-03-09T22:08:58.216Z,23.6
2019-03-09T22:18:57.430Z,23.6
2019-03-09T22:28:56.645Z,23.5
2019-03-09T22:38:55.871Z,23.5
2019-03-09T22:48:55.072Z,23.5
2019-03-09T22:58:54.287Z,23.4
2019-03-09T23:08:53.502Z,23.4
2019-03-09T23:18:52.712Z,23.4
2019-03-09T23:28:51.925Z,23.4
2019-03-09T23:38:51.139Z,23.4
2019-03-09T23:48:50.442Z,23.4
2019-03-09T23:58:49.566Z,23.4
